Time;durP1;ratioP1;P1;durP2;ratioP2;P2;SDS_P1;SDS_P2;PMS_P1;PMS_P2;Temp;Humidity;BMP_temperature;BMP_pressure;BME280_temperature;BME280_humidity;BME280_pressure;Samples;Min_cycle;Max_cycle;Signal;HPM_P1;HPM_P2
2023/04/01 00:01:46;;;;;;;46.63;29.50;;;409.70;1996.80;;;;;;5052377;28;20028;-61
2023/04/01 00:04:12;;;;;;;46.00;31.42;;;409.70;2022.40;;;;;;5052431;28;20040;-61
2023/04/01 00:06:38;;;;;;;27.20;19.42;;;409.70;1996.80;;;;;;5052552;28;20032;-61
2023/04/01 00:09:03;;;;;;;29.65;20.88;;;409.60;1996.80;;;;;;5052230;28;20032;-61
2023/04/01 00:11:29;;;;;;;20.27;12.60;;;409.70;1971.20;;;;;;5052697;28;20028;-61
2023/04/01 00:13:55;;;;;;;20.95;14.18;;;384.90;1920.00;;;;;;5051978;28;20024;-62
2023/04/01 00:16:21;;;;;;;28.20;20.02;;;409.60;1920.00;;;;;;5052553;28;20071;-61
2023/04/01 00:18:47;;;;;;;30.30;20.17;;;409.70;1945.60;;;;;;5052096;28;20060;-61
2023/04/01 00:21:13;;;;;;;34.38;21.08;;;409.70;2022.40;;;;;;5052258;28;20504;-61
2023/04/01 00:23:38;;;;;;;26.52;18.10;;;409.60;1996.80;;;;;;5051821;28;20108;-61
2023/04/01 00:26:05;;;;;;;28.45;14.70;;;409.70;1971.20;;;;;;5051824;28;20049;-61
2023/04/01 00:28:31;;;;;;;15.85;12.13;;;409.70;1945.60;;;;;;5051875;28;20017;-70
2023/04/01 00:30:57;;;;;;;17.65;10.85;;;409.80;1894.40;;;;;;5051862;28;20073;-61
2023/04/01 00:33:22;;;;;;;16.55;9.80;;;409.90;1868.80;;;;;;5051688;28;20048;-62
2023/04/01 00:35:48;;;;;;;18.75;12.95;;;409.90;1868.80;;;;;;5052079;28;20087;-63
2023/04/01 00:38:14;;;;;;;29.23;17.98;;;409.90;1945.60;;;;;;5051553;28;20438;-61
2023/04/01 00:40:43;;;;;;;53.72;35.35;;;409.80;1996.80;;;;;;5051420;28;20037;-61
2023/04/01 00:43:18;;;;;;;44.40;32.75;;;384.80;2022.40;;;;;;5051610;28;20549;-61
2023/04/01 00:45:45;;;;;;;53.10;34.38;;;384.40;2073.60;;;;;;5051615;28;20408;-61
2023/04/01 00:48:16;;;;;;;57.97;36.03;;;384.40;2073.60;;;;;;5051699;28;20445;-61
2023/04/01 00:50:48;;;;;;;49.88;32.88;;;384.60;2048.00;;;;;;5051861;28;20032;-61
2023/04/01 00:53:14;;;;;;;57.42;36.10;;;384.60;2073.60;;;;;;5051243;28;20029;-61
2023/04/01 00:55:45;;;;;;;55.63;33.78;;;384.50;2073.60;;;;;;5051722;28;20386;-66
2023/04/01 00:58:15;;;;;;;57.05;33.95;;;384.60;2099.20;;;;;;5051649;28;20032;-61
2023/04/01 01:00:42;;;;;;;42.65;28.80;;;384.60;2073.60;;;;;;5051634;28;20071;-61
2023/04/01 01:03:08;;;;;;;36.20;27.05;;;384.60;2048.00;;;;;;5051395;28;20082;-61
2023/04/01 01:05:59;;;;;;;42.85;29.30;;;384.60;2048.00;;;;;;5051687;28;20108;-61
2023/04/01 01:08:39;;;;;;;42.47;29.10;;;384.60;2099.20;;;;;;5050947;28;20036;-63
2023/04/01 01:11:10;;;;;;;38.05;25.13;;;384.70;2099.20;;;;;;5039299;28;20024;-61
2023/04/01 01:13:54;;;;;;;38.80;26.83;;;384.60;2073.60;;;;;;5051151;28;20146;-61
2023/04/01 01:16:29;;;;;;;37.00;23.05;;;384.60;2073.60;;;;;;5051377;28;20025;-61
2023/04/01 01:19:07;;;;;;;35.58;24.20;;;384.70;2073.60;;;;;;5050802;28;20382;-62
2023/04/01 01:22:00;;;;;;;36.72;23.52;;;384.70;2048.00;;;;;;5050778;28;20021;-62
2023/04/01 01:24:34;;;;;;;30.10;20.08;;;384.70;2048.00;;;;;;5050945;28;20025;-75
2023/04/01 01:27:18;;;;;;;31.52;21.13;;;384.70;2022.40;;;;;;5051047;28;20025;-76
2023/04/01 01:30:08;;;;;;;35.65;24.45;;;384.70;2022.40;;;;;;5050814;28;20378;-69
2023/04/01 01:32:42;;;;;;;26.45;19.30;;;384.70;2022.40;;;;;;5050734;28;20067;-61
2023/04/01 01:35:32;;;;;;;30.98;17.42;;;384.70;2022.40;;;;;;5050370;28;20041;-61
2023/04/01 01:38:09;;;;;;;16.08;11.77;;;384.60;2022.40;;;;;;5050841;28;20067;-65
2023/04/01 01:40:39;;;;;;;17.02;9.55;;;384.60;2022.40;;;;;;5041185;28;20041;-61
2023/04/01 01:43:09;;;;;;;12.25;6.80;;;384.60;1996.80;;;;;;5046965;28;20123;-61
2023/04/01 01:45:39;;;;;;;9.05;5.32;;;384.60;1996.80;;;;;;5050400;28;20116;-74
2023/04/01 01:48:08;;;;;;;9.60;4.97;;;384.60;1971.20;;;;;;5050012;28;20370;-61
2023/04/01 01:50:35;;;;;;;10.20;5.22;;;384.60;1996.80;;;;;;5049802;28;20067;-61
2023/04/01 01:53:09;;;;;;;15.57;5.72;;;384.60;1996.80;;;;;;5050470;28;20025;-62
2023/04/01 01:55:40;;;;;;;10.55;5.30;;;384.50;2022.40;;;;;;5050279;28;20025;-61
2023/04/01 01:58:16;;;;;;;10.45;5.65;;;384.50;1996.80;;;;;;5050211;28;20036;-60
2023/04/01 02:00:46;;;;;;;11.35;6.22;;;384.60;2022.40;;;;;;5050014;28;20408;-61
2023/04/01 02:03:14;;;;;;;21.50;11.60;;;384.60;2022.40;;;;;;5050397;28;20028;-61
2023/04/01 02:05:40;;;;;;;12.68;6.80;;;384.60;2048.00;;;;;;5049864;28;20036;-61
2023/04/01 02:08:15;;;;;;;11.35;7.75;;;384.60;2022.40;;;;;;5050167;28;20025;-61
2023/04/01 02:10:45;;;;;;;12.35;7.55;;;384.70;2022.40;;;;;;5050069;28;20104;-61
2023/04/01 02:13:21;;;;;;;15.70;9.32;;;384.70;2022.40;;;;;;5050632;28;20083;-62
2023/04/01 02:15:50;;;;;;;22.75;16.85;;;384.70;2073.60;;;;;;5049779;28;20344;-61
2023/04/01 02:18:18;;;;;;;25.52;16.83;;;384.50;2099.20;;;;;;5049472;28;20099;-66
2023/04/01 02:20:45;;;;;;;27.25;19.10;;;384.40;2150.40;;;;;;5024188;28;20025;-61
2023/04/01 02:23:11;;;;;;;26.77;19.48;;;384.20;2201.60;;;;;;5036448;28;20030;-61
2023/04/01 02:25:38;;;;;;;27.63;19.63;;;384.10;2252.80;;;;;;5049341;28;20017;-62
2023/04/01 02:28:07;;;;;;;27.63;19.30;;;384.10;2329.60;;;;;;5049317;28;20112;-61
2023/04/01 02:30:36;;;;;;;25.00;18.88;;;384.10;2329.60;;;;;;5049617;28;20028;-75
2023/04/01 02:33:03;;;;;;;21.45;16.42;;;384.30;2329.60;;;;;;5049288;28;20060;-61
2023/04/01 02:35:29;;;;;;;22.58;15.60;;;384.10;2329.60;;;;;;5049672;28;20045;-61
2023/04/01 02:37:55;;;;;;;20.40;14.18;;;384.10;2329.60;;;;;;5049558;28;20072;-61
2023/04/01 02:40:22;;;;;;;19.00;13.15;;;359.30;2329.60;;;;;;5049557;28;20041;-61
2023/04/01 02:42:48;;;;;;;19.15;11.40;;;359.20;2329.60;;;;;;5049734;28;20025;-61
2023/04/01 02:45:14;;;;;;;14.93;10.18;;;359.20;2329.60;;;;;;5049410;28;20454;-61
2023/04/01 02:47:40;;;;;;;19.92;9.10;;;359.20;2329.60;;;;;;5049867;28;20049;-63
2023/04/01 02:50:07;;;;;;;11.57;7.75;;;359.10;2329.60;;;;;;5049549;28;20490;-61
2023/04/01 02:52:33;;;;;;;16.65;14.75;;;359.00;2329.60;;;;;;5049442;28;20021;-62
2023/04/01 02:54:59;;;;;;;14.65;7.97;;;359.00;2329.60;;;;;;5049220;28;20031;-61
2023/04/01 02:57:25;;;;;;;17.10;7.82;;;359.00;2329.60;;;;;;5049259;28;20452;-61
2023/04/01 02:59:51;;;;;;;16.60;9.57;;;358.90;2329.60;;;;;;5049589;28;20469;-62
2023/04/01 03:02:17;;;;;;;12.80;8.60;;;358.90;2329.60;;;;;;5035531;28;20057;-61
2023/04/01 03:04:43;;;;;;;14.43;7.85;;;358.80;2329.60;;;;;;5049394;28;20025;-62
2023/04/01 03:07:10;;;;;;;12.13;7.57;;;358.80;2329.60;;;;;;5049254;28;20032;-61
2023/04/01 03:09:39;;;;;;;10.27;7.97;;;358.70;2329.60;;;;;;5048845;28;20036;-65
2023/04/01 03:12:05;;;;;;;15.85;7.50;;;358.60;2329.60;;;;;;5049279;28;20372;-63
2023/04/01 03:14:31;;;;;;;15.98;7.07;;;358.50;2329.60;;;;;;5049315;28;20021;-61
2023/04/01 03:16:56;;;;;;;14.00;7.38;;;358.40;2329.60;;;;;;5049111;28;20067;-61
2023/04/01 03:19:22;;;;;;;11.70;6.93;;;333.70;2329.60;;;;;;5048839;28;20478;-63
2023/04/01 03:21:48;;;;;;;13.30;7.28;;;333.60;2329.60;;;;;;5049193;28;20116;-61
2023/04/01 03:24:13;;;;;;;11.90;7.68;;;333.40;2329.60;;;;;;5048871;28;20021;-62
2023/04/01 03:26:39;;;;;;;10.82;6.93;;;333.40;2329.60;;;;;;5048948;28;20036;-63
2023/04/01 03:29:05;;;;;;;12.50;6.35;;;333.50;2329.60;;;;;;5039497;28;20459;-61
2023/04/01 03:31:30;;;;;;;12.20;10.07;;;333.50;2329.60;;;;;;5045181;28;20025;-60
2023/04/01 03:33:56;;;;;;;11.80;8.18;;;333.40;2329.60;;;;;;5048798;28;20455;-61
2023/04/01 03:36:22;;;;;;;13.90;8.85;;;333.40;2329.60;;;;;;5048393;28;20057;-60
2023/04/01 03:38:48;;;;;;;10.38;7.88;;;333.40;2329.60;;;;;;5049093;28;20394;-61
2023/04/01 03:41:15;;;;;;;10.07;7.15;;;333.30;2329.60;;;;;;5048440;28;20028;-61
2023/04/01 03:43:42;;;;;;;11.43;6.75;;;333.40;2329.60;;;;;;5049205;28;20082;-61
2023/04/01 03:46:07;;;;;;;15.25;7.47;;;333.30;2329.60;;;;;;5048945;28;20025;-62
2023/04/01 03:48:33;;;;;;;9.13;6.90;;;333.30;2329.60;;;;;;5048712;28;20025;-62
2023/04/01 03:50:59;;;;;;;12.85;7.93;;;333.40;2329.60;;;;;;5048209;28;20101;-66
2023/04/01 03:53:25;;;;;;;14.65;8.93;;;333.50;2329.60;;;;;;5038352;28;20528;-73
2023/04/01 03:55:51;;;;;;;9.82;7.00;;;333.50;2329.60;;;;;;5048814;28;20111;-64
2023/04/01 03:58:17;;;;;;;13.25;8.38;;;333.40;2329.60;;;;;;5050292;28;20559;-64
2023/04/01 04:00:43;;;;;;;16.83;8.93;;;333.40;2329.60;;;;;;5050460;28;20039;-64
2023/04/01 04:03:08;;;;;;;13.00;8.38;;;333.40;2329.60;;;;;;5050442;28;20107;-64
2023/04/01 04:05:34;;;;;;;10.90;7.45;;;333.40;2329.60;;;;;;5048467;28;20025;-63
2023/04/01 04:08:00;;;;;;;17.17;9.25;;;333.40;2329.60;;;;;;5048717;28;20029;-64
2023/04/01 04:10:26;;;;;;;15.90;8.48;;;333.50;2329.60;;;;;;5048700;28;20021;-64
2023/04/01 04:12:52;;;;;;;15.15;8.18;;;333.50;2329.60;;;;;;5048739;28;20088;-64
2023/04/01 04:15:18;;;;;;;12.88;7.63;;;333.50;2329.60;;;;;;5050797;28;20029;-63
2023/04/01 04:17:47;;;;;;;20.75;14.10;;;333.40;2329.60;;;;;;5051261;28;20052;-64
2023/04/01 04:20:13;;;;;;;15.18;10.73;;;333.40;2329.60;;;;;;5052641;28;20158;-64
2023/04/01 04:22:39;;;;;;;12.63;10.45;;;333.50;2329.60;;;;;;5052568;28;20036;-64
2023/04/01 04:25:06;;;;;;;13.60;9.27;;;333.40;2329.60;;;;;;5052829;28;20979;-71
2023/04/01 04:27:31;;;;;;;17.38;10.60;;;333.40;2329.60;;;;;;5054569;28;20025;-63
2023/04/01 04:29:57;;;;;;;13.77;9.68;;;333.40;2329.60;;;;;;5052387;28;20021;-61
2023/04/01 04:32:23;;;;;;;17.48;9.85;;;333.40;2329.60;;;;;;5052057;28;20021;-61
2023/04/01 04:34:48;;;;;;;12.55;10.70;;;333.20;2329.60;;;;;;5051622;28;20129;-61
2023/04/01 04:37:14;;;;;;;23.02;11.68;;;333.20;2329.60;;;;;;5051828;28;20037;-62
2023/04/01 04:39:40;;;;;;;14.82;10.95;;;333.20;2329.60;;;;;;5051523;28;20052;-61
2023/04/01 04:42:06;;;;;;;16.90;11.98;;;333.20;2329.60;;;;;;5051886;28;20021;-73
2023/04/01 04:44:31;;;;;;;25.58;13.73;;;333.20;2329.60;;;;;;5051744;28;21629;-61
2023/04/01 04:46:57;;;;;;;14.07;11.95;;;333.20;2329.60;;;;;;5051676;28;20075;-61
2023/04/01 04:49:23;;;;;;;16.75;11.82;;;333.20;2329.60;;;;;;5050937;28;20100;-64
2023/04/01 04:51:48;;;;;;;15.48;10.63;;;333.20;2329.60;;;;;;5051910;28;20469;-62
2023/04/01 04:54:14;;;;;;;23.90;12.25;;;333.20;2329.60;;;;;;5050903;28;20021;-64
2023/04/01 04:56:40;;;;;;;20.70;11.80;;;333.20;2329.60;;;;;;5051653;28;20060;-63
2023/04/01 04:59:06;;;;;;;18.70;12.15;;;333.30;2329.60;;;;;;5051366;28;20037;-63
2023/04/01 05:01:33;;;;;;;14.98;12.30;;;333.20;2329.60;;;;;;5042405;28;20022;-61
2023/04/01 05:03:59;;;;;;;16.35;12.73;;;333.30;2329.60;;;;;;5047175;28;20021;-61
2023/04/01 05:06:25;;;;;;;22.70;12.45;;;333.30;2329.60;;;;;;5051529;28;20037;-62
2023/04/01 05:08:51;;;;;;;26.45;19.23;;;333.40;2329.60;;;;;;5051277;28;20052;-62
2023/04/01 05:11:20;;;;;;;18.77;13.80;;;333.50;2329.60;;;;;;5051336;28;20033;-61
2023/04/01 05:13:46;;;;;;;19.95;13.20;;;333.60;2329.60;;;;;;5051041;28;20029;-62
2023/04/01 05:16:17;;;;;;;19.52;13.05;;;333.60;2329.60;;;;;;5050913;28;20028;-62
2023/04/01 05:18:43;;;;;;;18.13;13.73;;;333.70;2329.60;;;;;;5049755;28;20032;-77
2023/04/01 05:21:11;;;;;;;26.05;17.70;;;358.50;2329.60;;;;;;5051119;28;20029;-79
2023/04/01 05:23:36;;;;;;;18.92;12.63;;;358.70;2329.60;;;;;;5050927;28;20123;-62
2023/04/01 05:26:14;;;;;;;14.13;12.60;;;358.90;2329.60;;;;;;5049915;28;20025;-79
2023/04/01 05:28:40;;;;;;;15.15;12.65;;;359.00;2329.60;;;;;;5050368;28;20017;-61
2023/04/01 05:31:06;;;;;;;22.30;13.68;;;358.70;2329.60;;;;;;5050057;28;20025;-61
2023/04/01 05:33:33;;;;;;;130.35;118.28;;;358.70;2329.60;;;;;;5050818;28;20021;-61
2023/04/01 05:36:13;;;;;;;21.90;18.10;;;358.60;2329.60;;;;;;5050546;28;20052;-62
2023/04/01 05:38:39;;;;;;;17.45;14.75;;;358.40;2329.60;;;;;;5027053;28;20029;-62
2023/04/01 05:41:05;;;;;;;21.50;14.43;;;333.60;2329.60;;;;;;5046657;28;20033;-62
2023/04/01 05:43:31;;;;;;;16.17;14.45;;;333.70;2329.60;;;;;;5050962;28;20383;-62
2023/04/01 05:45:57;;;;;;;20.10;13.95;;;333.60;2329.60;;;;;;5050068;28;20391;-63
2023/04/01 05:48:23;;;;;;;17.52;13.32;;;333.50;2329.60;;;;;;5050103;28;20059;-61
2023/04/01 05:50:48;;;;;;;25.65;14.48;;;333.30;2329.60;;;;;;5050304;28;20463;-61
2023/04/01 05:53:14;;;;;;;18.13;14.85;;;333.20;2329.60;;;;;;5050156;28;20024;-62
2023/04/01 05:55:40;;;;;;;15.93;12.20;;;333.10;2329.60;;;;;;5050346;28;20112;-61
2023/04/01 05:58:05;;;;;;;26.02;20.30;;;333.20;2329.60;;;;;;5050319;28;20033;-62
2023/04/01 06:00:31;;;;;;;46.13;33.67;;;333.40;2329.60;;;;;;5050333;28;20022;-62
2023/04/01 06:02:59;;;;;;;42.20;31.55;;;333.40;2329.60;;;;;;5049951;28;20021;-63
2023/04/01 06:05:28;;;;;;;42.17;32.65;;;333.40;2329.60;;;;;;5050258;28;20437;-63
2023/04/01 06:08:10;;;;;;;92.95;83.85;;;333.60;2329.60;;;;;;5050142;28;20025;-64
2023/04/01 06:10:45;;;;;;;61.92;55.70;;;333.40;2329.60;;;;;;5049884;28;20084;-63
2023/04/01 06:13:12;;;;;;;23.15;20.67;;;333.40;2329.60;;;;;;5050281;28;20076;-65
2023/04/01 06:16:02;;;;;;;26.13;19.48;;;333.30;2329.60;;;;;;5036459;28;20028;-64
2023/04/01 06:19:13;;;;;;;35.20;28.17;;;333.20;2329.60;;;;;;5049816;28;20375;-62
2023/04/01 06:21:44;;;;;;;28.02;20.85;;;333.20;2329.60;;;;;;5048908;28;20040;-63
2023/04/01 06:24:19;;;;;;;29.58;21.65;;;333.30;2329.60;;;;;;5049967;28;20104;-62
2023/04/01 06:27:23;;;;;;;36.45;27.25;;;333.40;2329.60;;;;;;5049503;28;20017;-62
2023/04/01 06:30:04;;;;;;;42.65;33.92;;;333.40;2329.60;;;;;;5048019;28;20028;-62
2023/04/01 06:32:48;;;;;;;43.65;31.15;;;333.50;2329.60;;;;;;5040932;28;20519;-62
2023/04/01 06:35:25;;;;;;;40.40;30.73;;;333.50;2329.60;;;;;;5016679;28;20045;-62
2023/04/01 06:38:05;;;;;;;45.45;35.03;;;333.60;2329.60;;;;;;5029112;28;20030;-65
2023/04/01 06:40:43;;;;;;;36.40;30.58;;;333.50;2329.60;;;;;;5035289;28;20021;-62
2023/04/01 06:43:15;;;;;;;37.22;27.75;;;333.20;2329.60;;;;;;5041303;28;20143;-62
2023/04/01 06:46:00;;;;;;;41.80;28.65;;;333.00;2329.60;;;;;;5037920;28;20103;-62
2023/04/01 06:48:58;;;;;;;58.50;43.03;;;333.20;2329.60;;;;;;5027591;28;20018;-62
2023/04/01 06:51:55;;;;;;;39.67;31.98;;;333.30;2329.60;;;;;;5025991;28;20470;-61
2023/04/01 06:54:28;;;;;;;84.03;55.72;;;333.30;2329.60;;;;;;5043619;28;20025;-66
2023/04/01 06:57:00;;;;;;;41.80;34.65;;;333.40;2329.60;;;;;;5035899;28;20128;-73
2023/04/01 06:59:29;;;;;;;88.40;66.05;;;333.40;2329.60;;;;;;5045333;28;20029;-61
2023/04/01 07:01:57;;;;;;;123.35;89.38;;;333.40;2329.60;;;;;;5047056;28;20078;-78
2023/04/01 07:04:41;;;;;;;87.50;63.72;;;333.50;2329.60;;;;;;5046724;28;20526;-61
2023/04/01 07:07:21;;;;;;;148.07;103.40;;;333.30;2329.60;;;;;;5046367;28;20514;-61
2023/04/01 07:09:52;;;;;;;75.40;58.92;;;333.50;2329.60;;;;;;5046669;28;20384;-61
2023/04/01 07:12:52;;;;;;;73.85;54.15;;;333.60;2329.60;;;;;;5046946;28;20017;-67
2023/04/01 07:15:30;;;;;;;44.45;33.90;;;333.50;2329.60;;;;;;5046732;28;20068;-71
2023/04/01 07:18:09;;;;;;;42.60;29.70;;;333.20;2329.60;;;;;;5046520;28;20036;-75
2023/04/01 07:20:38;;;;;;;25.23;20.77;;;332.90;2329.60;;;;;;5046431;28;20055;-67
2023/04/01 07:23:10;;;;;;;33.60;23.13;;;332.90;2329.60;;;;;;5046652;28;20071;-60
2023/04/01 07:25:43;;;;;;;30.35;22.38;;;333.00;2329.60;;;;;;5039880;28;20105;-61
2023/04/01 07:28:13;;;;;;;;;;;333.00;2329.60;;;;;;5042184;28;20037;-62
2023/04/01 07:31:17;;;;;;;15.75;12.35;;;333.00;2329.60;;;;;;5049091;28;19944;-62
2023/04/01 07:34:02;;;;;;;56.03;42.83;;;333.10;2329.60;;;;;;5023204;28;20028;-62
2023/04/01 07:36:40;;;;;;;71.63;51.45;;;332.80;2329.60;;;;;;5047948;28;20491;-62
2023/04/01 07:39:38;;;;;;;93.53;67.55;;;332.80;2329.60;;;;;;5048981;28;20045;-69
2023/04/01 07:42:21;;;;;;;93.53;66.65;;;332.90;2329.60;;;;;;5048565;28;20017;-62
2023/04/01 07:45:10;;;;;;;56.88;43.20;;;332.90;2329.60;;;;;;5048410;28;20017;-65
2023/04/01 07:47:56;;;;;;;71.10;53.30;;;333.20;2329.60;;;;;;5048772;28;20554;-62
2023/04/01 07:50:31;;;;;;;104.88;81.60;;;333.40;2329.60;;;;;;5045224;28;20028;-64
2023/04/01 07:53:20;;;;;;;84.20;61.33;;;333.50;2329.60;;;;;;5026481;28;20123;-62
2023/04/01 07:56:01;;;;;;;109.63;77.55;;;333.60;2329.60;;;;;;5046302;28;20423;-62
2023/04/01 07:58:30;;;;;;;65.13;47.63;;;333.70;2329.60;;;;;;5050926;28;20467;-64
2023/04/01 08:01:28;;;;;;;81.90;59.15;;;333.70;2329.60;;;;;;5050841;28;20066;-65
2023/04/01 08:04:00;;;;;;;127.78;87.30;;;333.70;2329.60;;;;;;5047929;28;20091;-67
2023/04/01 08:06:33;;;;;;;68.13;51.08;;;333.60;2329.60;;;;;;5048047;28;20041;-64
2023/04/01 08:09:20;;;;;;;232.20;149.10;;;333.40;2329.60;;;;;;5048565;28;20099;-64
2023/04/01 08:12:01;;;;;;;72.22;54.55;;;333.40;2329.60;;;;;;5048269;28;20021;-65
2023/04/01 08:14:51;;;;;;;56.80;42.40;;;333.40;2329.60;;;;;;5048231;28;20040;-61
2023/04/01 08:17:16;;;;;;;37.15;30.05;;;333.50;2329.60;;;;;;5047932;28;20507;-61
2023/04/01 08:20:03;;;;;;;66.30;54.13;;;333.40;2329.60;;;;;;5047734;28;20059;-62
2023/04/01 08:22:40;;;;;;;71.15;57.03;;;333.60;2329.60;;;;;;5048266;28;20029;-62
2023/04/01 08:25:10;;;;;;;99.07;79.00;;;358.40;2329.60;;;;;;5047883;28;20021;-62
2023/04/01 08:27:41;;;;;;;87.50;75.38;;;358.60;2329.60;;;;;;5040563;28;20037;-63
2023/04/01 08:30:31;;;;;;;56.30;49.58;;;358.70;2329.60;;;;;;5035157;28;20108;-69
2023/04/01 08:33:00;;;;;;;63.08;55.35;;;358.80;2329.60;;;;;;5047496;28;20072;-64
2023/04/01 08:35:31;;;;;;;55.70;41.13;;;358.90;2329.60;;;;;;5047445;28;20060;-62
2023/04/01 08:38:05;;;;;;;37.72;31.60;;;358.90;2329.60;;;;;;5047586;28;20037;-62
2023/04/01 08:40:41;;;;;;;34.80;31.10;;;358.70;2329.60;;;;;;5049498;28;20033;-62
2023/04/01 08:43:13;;;;;;;41.30;33.03;;;358.70;2329.60;;;;;;5026290;28;20075;-63
2023/04/01 08:46:07;;;;;;;36.72;32.72;;;358.50;2329.60;;;;;;5049761;28;20025;-63
2023/04/01 08:49:10;;;;;;;34.70;30.35;;;358.60;2329.60;;;;;;5050133;28;20029;-63
2023/04/01 08:52:07;;;;;;;48.47;41.58;;;358.90;2329.60;;;;;;5050595;28;20401;-65
2023/04/01 08:54:38;;;;;;;57.15;50.38;;;358.90;2329.60;;;;;;5046535;28;20372;-63
2023/04/01 08:57:21;;;;;;;46.97;38.75;;;359.00;2329.60;;;;;;5049652;28;20029;-64
2023/04/01 09:00:17;;;;;;;46.20;38.10;;;359.30;2329.60;;;;;;5024636;28;20078;-62
2023/04/01 09:03:10;;;;;;;48.83;39.20;;;384.00;2329.60;;;;;;5049104;28;20029;-62
2023/04/01 09:05:41;;;;;;;53.45;39.85;;;384.00;2329.60;;;;;;5048910;28;20499;-64
2023/04/01 09:08:17;;;;;;;47.85;39.40;;;359.20;2329.60;;;;;;5049193;28;20035;-61
2023/04/01 09:10:54;;;;;;;42.10;35.58;;;359.10;2329.60;;;;;;5048662;28;20032;-64
2023/04/01 09:13:31;;;;;;;43.30;34.67;;;359.10;2329.60;;;;;;5049909;28;20514;-64
2023/04/01 09:16:09;;;;;;;36.67;31.15;;;359.20;2329.60;;;;;;5027403;28;20030;-62
2023/04/01 09:18:57;;;;;;;33.05;26.38;;;359.10;2329.60;;;;;;5029268;28;20029;-63
2023/04/01 09:21:37;;;;;;;34.03;26.85;;;359.00;2329.60;;;;;;5029472;28;20022;-64
2023/04/01 09:24:21;;;;;;;25.00;21.58;;;359.20;2329.60;;;;;;5049630;28;20017;-62
2023/04/01 09:27:05;;;;;;;26.55;22.50;;;359.20;2329.60;;;;;;5048198;28;20111;-63
2023/04/01 09:29:50;;;;;;;29.95;25.05;;;384.10;2329.60;;;;;;5048752;28;20433;-63
2023/04/01 09:32:25;;;;;;;26.90;20.98;;;384.10;2329.60;;;;;;5047867;28;20554;-62
2023/04/01 09:35:03;;;;;;;24.63;21.88;;;384.00;2329.60;;;;;;5048234;28;20056;-63
2023/04/01 09:37:34;;;;;;;24.17;19.65;;;384.10;2329.60;;;;;;5048240;28;20033;-62
2023/04/01 09:40:35;;;;;;;18.40;15.68;;;384.20;2329.60;;;;;;5044461;28;20025;-63
2023/04/01 09:43:38;;;;;;;19.02;14.98;;;384.60;2329.60;;;;;;5037765;28;20488;-66
2023/04/01 09:46:11;;;;;;;28.60;22.50;;;409.70;2355.20;;;;;;5049141;28;20417;-64
2023/04/01 09:49:06;;;;;;;16.70;14.98;;;410.00;2355.20;;;;;;5049140;28;20098;-65
2023/04/01 09:51:56;;;;;;;55.20;39.13;;;410.30;2355.20;;;;;;5048738;28;20526;-64
2023/04/01 09:54:36;;;;;;;35.53;26.33;;;435.60;2355.20;;;;;;5042364;28;20402;-62
2023/04/01 09:57:19;;;;;;;17.63;14.90;;;436.10;2355.20;;;;;;5048889;28;20040;-63
2023/04/01 09:59:51;;;;;;;;;;;460.90;2380.80;;;;;;5024169;28;20025;-62
2023/04/01 10:02:41;;;;;;;17.55;12.98;;;460.90;2380.80;;;;;;5048266;28;19905;-62
2023/04/01 10:05:34;;;;;;;14.27;11.63;;;435.60;2355.20;;;;;;5048634;28;20538;-65
2023/04/01 10:08:21;;;;;;;9.20;7.17;;;409.80;2355.20;;;;;;5026549;28;20029;-63
2023/04/01 10:11:05;;;;;;;9.27;8.38;;;384.10;2329.60;;;;;;5048121;28;20024;-63
2023/04/01 10:13:45;;;;;;;12.35;7.35;;;359.00;2329.60;;;;;;5047790;28;20035;-62
2023/04/01 10:16:14;;;;;;;9.48;4.50;;;358.90;2329.60;;;;;;5034990;28;20123;-62
2023/04/01 10:19:17;;;;;;;10.15;5.90;;;358.60;2329.60;;;;;;5048727;28;20119;-63
2023/04/01 10:21:56;;;;;;;4.25;3.35;;;358.50;2329.60;;;;;;5032250;28;20103;-62
2023/04/01 10:24:25;;;;;;;7.35;6.57;;;333.50;2329.60;;;;;;5048440;28;20083;-63
2023/04/01 10:27:30;;;;;;;14.52;2.55;;;333.20;2329.60;;;;;;5047994;28;20029;-62
2023/04/01 10:30:17;;;;;;;5.75;3.50;;;333.10;2329.60;;;;;;5047852;28;20029;-63
2023/04/01 10:33:23;;;;;;;9.05;3.35;;;333.00;2329.60;;;;;;5048191;28;20032;-64
2023/04/01 10:36:14;;;;;;;8.35;4.80;;;332.90;2329.60;;;;;;5024531;28;20105;-63
2023/04/01 10:38:58;;;;;;;5.97;3.40;;;308.00;2304.00;;;;;;5048245;28;20063;-64
2023/04/01 10:42:12;;;;;;;5.38;4.03;;;307.80;2304.00;;;;;;5047786;28;20024;-63
2023/04/01 10:45:14;;;;;;;8.02;4.88;;;307.60;2304.00;;;;;;5045112;28;20252;-64
2023/04/01 10:48:23;;;;;;;11.70;6.65;;;307.60;2304.00;;;;;;5045618;28;20036;-61
2023/04/01 10:51:13;;;;;;;23.30;16.42;;;307.40;2304.00;;;;;;4966867;28;20023;-62
2023/04/01 10:54:00;;;;;;;4.97;2.92;;;307.40;2304.00;;;;;;5045734;28;20032;-63
2023/04/01 10:56:34;;;;;;;4.72;2.63;;;307.30;2304.00;;;;;;5044807;28;20041;-61
2023/04/01 10:59:30;;;;;;;4.50;3.90;;;307.30;2304.00;;;;;;5045167;28;20044;-61
2023/04/01 11:02:23;;;;;;;3.47;1.85;;;307.30;2304.00;;;;;;5045053;28;20781;-62
2023/04/01 11:05:16;;;;;;;3.00;2.20;;;307.30;2304.00;;;;;;5045049;28;20037;-62
2023/04/01 11:07:42;;;;;;;5.75;4.47;;;307.40;2304.00;;;;;;5044898;28;20438;-61
2023/04/01 11:10:40;;;;;;;5.90;3.70;;;307.50;2304.00;;;;;;5044715;28;20070;-63
2023/04/01 11:13:24;;;;;;;5.00;3.20;;;307.50;2304.00;;;;;;5035211;28;20059;-62
2023/04/01 11:16:34;;;;;;;8.25;4.28;;;307.50;2304.00;;;;;;5023898;28;20025;-62
2023/04/01 11:19:08;;;;;;;7.60;4.30;;;307.70;2304.00;;;;;;5020805;28;20099;-64
2023/04/01 11:21:42;;;;;;;6.03;4.85;;;307.30;2304.00;;;;;;5023996;28;20589;-63
2023/04/01 11:24:45;;;;;;;10.23;5.35;;;307.20;2304.00;;;;;;5047114;28;20021;-64
2023/04/01 11:27:50;;;;;;;6.15;4.35;;;307.20;2304.00;;;;;;5047446;28;20029;-64
2023/04/01 11:30:34;;;;;;;21.33;13.10;;;282.40;2278.40;;;;;;5046924;28;20031;-64
2023/04/01 11:33:23;;;;;;;10.32;6.03;;;282.40;2278.40;;;;;;5026353;28;20114;-63
2023/04/01 11:36:13;;;;;;;12.32;7.47;;;282.30;2278.40;;;;;;5046698;28;20056;-62
2023/04/01 11:38:49;;;;;;;6.68;4.88;;;282.30;2278.40;;;;;;5034167;28;20045;-62
2023/04/01 11:41:51;;;;;;;5.45;4.00;;;282.10;2278.40;;;;;;5043643;28;20313;-63
2023/04/01 11:44:24;;;;;;;8.07;5.00;;;282.20;2278.40;;;;;;5046487;28;20041;-61
2023/04/01 11:47:27;;;;;;;15.63;11.27;;;282.20;2278.40;;;;;;5033432;28;20056;-62
2023/04/01 11:49:53;;;;;;;3.08;1.92;;;282.20;2278.40;;;;;;5031864;28;20036;-63
2023/04/01 11:52:28;;;;;;;3.20;1.80;;;282.10;2278.40;;;;;;5044074;28;20021;-62
2023/04/01 11:55:19;;;;;;;3.17;1.67;;;282.00;2278.40;;;;;;5037948;28;20026;-65
2023/04/01 11:57:51;;;;;;;2.33;1.33;;;282.00;2278.40;;;;;;5016443;28;20483;-63
2023/04/01 12:00:30;;;;;;;3.72;2.33;;;282.00;2278.40;;;;;;5043680;28;20025;-63
2023/04/01 12:03:33;;;;;;;4.18;3.17;;;282.00;2278.40;;;;;;5048547;28;20037;-64
2023/04/01 12:06:46;;;;;;;2.47;1.50;;;282.10;2278.40;;;;;;5027172;28;20051;-62
2023/04/01 12:09:50;;;;;;;2.08;1.40;;;282.20;2278.40;;;;;;5046349;28;20037;-63
2023/04/01 12:12:34;;;;;;;1.75;1.10;;;282.20;2278.40;;;;;;5024017;28;20049;-61
2023/04/01 12:15:21;;;;;;;2.72;1.50;;;282.20;2278.40;;;;;;5024289;28;20080;-62
2023/04/01 12:17:56;;;;;;;2.90;1.55;;;282.10;2278.40;;;;;;5024403;28;20029;-63
2023/04/01 12:20:50;;;;;;;4.75;3.25;;;282.40;2278.40;;;;;;5024849;28;20029;-62
2023/04/01 12:23:36;;;;;;;3.25;2.05;;;307.20;2304.00;;;;;;5019238;28;20722;-63
2023/04/01 12:26:28;;;;;;;3.92;2.00;;;307.20;2304.00;;;;;;5007815;28;20364;-65
2023/04/01 12:29:12;;;;;;;6.05;2.45;;;282.40;2278.40;;;;;;5003940;28;20038;-62
2023/04/01 12:31:43;;;;;;;4.03;2.33;;;307.20;2304.00;;;;;;5011269;28;20033;-63
2023/04/01 12:34:29;;;;;;;7.15;4.07;;;307.30;2304.00;;;;;;5024725;28;20399;-63
2023/04/01 12:37:09;;;;;;;7.20;5.30;;;307.40;2304.00;;;;;;5026649;28;20131;-63
2023/04/01 12:39:53;;;;;;;25.38;14.73;;;307.50;2304.00;;;;;;5027692;28;20021;-63
2023/04/01 12:42:28;;;;;;;;;;;307.80;2304.00;;;;;;5028351;28;20356;-63
2023/04/01 12:45:15;;;;;;;9.57;4.57;;;307.90;2304.00;;;;;;5027762;28;20362;-64
2023/04/01 12:48:01;;;;;;;10.93;6.78;;;308.00;2304.00;;;;;;5024366;28;20035;-62